sensor_id;sensor_type;location;lat;lon;timestamp;P1;durP1;ratioP1;P2;durP2;ratioP2
41546;SDS011;27271;45.412;10.852;2024-01-15T05:03:04;145.02;;;54.63;;
41546;SDS011;27271;45.412;10.852;2024-01-15T05:06:27;154.00;;;52.35;;
41546;SDS011;27271;45.412;10.852;2024-01-15T05:09:49;149.75;;;52.05;;
41546;SDS011;27271;45.412;10.852;2024-01-15T05:13:12;140.10;;;52.42;;
41546;SDS011;27271;45.412;10.852;2024-01-15T05:16:46;139.13;;;53.38;;
41546;SDS011;27271;45.412;10.852;2024-01-15T05:20:20;141.32;;;54.33;;
41546;SDS011;27271;45.412;10.852;2024-01-15T05:23:42;148.75;;;55.65;;
41546;SDS011;27271;45.412;10.852;2024-01-15T05:27:04;143.48;;;55.40;;
41546;SDS011;27271;45.412;10.852;2024-01-15T05:30:26;147.23;;;54.10;;
41546;SDS011;27271;45.412;10.852;2024-01-15T05:33:49;145.20;;;56.08;;
41546;SDS011;27271;45.412;10.852;2024-01-15T05:37:14;153.88;;;56.25;;
41546;SDS011;27271;45.412;10.852;2024-01-15T05:40:36;143.25;;;56.72;;
41546;SDS011;27271;45.412;10.852;2024-01-15T05:43:58;146.10;;;56.42;;
41546;SDS011;27271;45.412;10.852;2024-01-15T05:47:21;145.13;;;57.67;;
41546;SDS011;27271;45.412;10.852;2024-01-15T05:50:43;135.27;;;54.88;;
41546;SDS011;27271;45.412;10.852;2024-01-15T05:54:05;140.77;;;55.42;;
41546;SDS011;27271;45.412;10.852;2024-01-15T05:57:28;135.55;;;54.72;;
41546;SDS011;27271;45.412;10.852;2024-01-15T06:00:51;140.90;;;53.65;;
41546;SDS011;27271;45.412;10.852;2024-01-15T06:04:13;142.65;;;54.97;;
41546;SDS011;27271;45.412;10.852;2024-01-15T06:07:36;149.90;;;56.17;;
41546;SDS011;27271;45.412;10.852;2024-01-15T06:10:58;151.98;;;56.20;;
41546;SDS011;27271;45.412;10.852;2024-01-15T06:14:22;144.32;;;55.08;;
41546;SDS011;27271;45.412;10.852;2024-01-15T06:17:44;152.40;;;55.08;;
41546;SDS011;27271;45.412;10.852;2024-01-15T06:21:08;141.10;;;53.78;;
41546;SDS011;27271;45.412;10.852;2024-01-15T06:24:32;133.07;;;50.38;;
41546;SDS011;27271;45.412;10.852;2024-01-15T06:27:54;130.52;;;52.30;;
41546;SDS011;27271;45.412;10.852;2024-01-15T06:31:16;126.35;;;50.28;;
41546;SDS011;27271;45.412;10.852;2024-01-15T06:34:39;137.02;;;50.47;;
41546;SDS011;27271;45.412;10.852;2024-01-15T06:38:01;122.15;;;49.47;;
41546;SDS011;27271;45.412;10.852;2024-01-15T06:41:24;126.82;;;51.05;;
41546;SDS011;27271;45.412;10.852;2024-01-15T06:44:47;129.73;;;49.70;;
41546;SDS011;27271;45.412;10.852;2024-01-15T06:48:09;121.13;;;48.53;;
41546;SDS011;27271;45.412;10.852;2024-01-15T06:51:35;120.47;;;49.95;;
41546;SDS011;27271;45.412;10.852;2024-01-15T06:54:57;121.72;;;50.63;;
41546;SDS011;27271;45.412;10.852;2024-01-15T06:58:19;109.32;;;44.47;;
41546;SDS011;27271;45.412;10.852;2024-01-15T07:01:41;85.35;;;37.08;;
41546;SDS011;27271;45.412;10.852;2024-01-15T07:05:04;82.72;;;36.25;;
41546;SDS011;27271;45.412;10.852;2024-01-15T07:08:29;79.45;;;33.70;;
41546;SDS011;27271;45.412;10.852;2024-01-15T07:11:51;86.38;;;36.17;;
41546;SDS011;27271;45.412;10.852;2024-01-15T07:15:14;88.82;;;36.38;;
41546;SDS011;27271;45.412;10.852;2024-01-15T07:18:37;86.75;;;36.95;;
41546;SDS011;27271;45.412;10.852;2024-01-15T07:22:00;90.60;;;41.75;;
41546;SDS011;27271;45.412;10.852;2024-01-15T07:25:22;99.28;;;41.75;;
41546;SDS011;27271;45.412;10.852;2024-01-15T07:28:48;115.57;;;46.15;;
41546;SDS011;27271;45.412;10.852;2024-01-15T07:32:11;126.22;;;48.40;;
41546;SDS011;27271;45.412;10.852;2024-01-15T07:35:33;121.78;;;46.92;;
41546;SDS011;27271;45.412;10.852;2024-01-15T07:38:55;114.25;;;48.00;;
41546;SDS011;27271;45.412;10.852;2024-01-15T07:42:20;119.25;;;47.28;;
41546;SDS011;27271;45.412;10.852;2024-01-15T07:45:45;123.55;;;49.58;;
41546;SDS011;27271;45.412;10.852;2024-01-15T07:49:08;129.38;;;49.85;;
41546;SDS011;27271;45.412;10.852;2024-01-15T07:52:30;126.72;;;48.70;;
41546;SDS011;27271;45.412;10.852;2024-01-15T07:55:52;133.68;;;50.33;;
41546;SDS011;27271;45.412;10.852;2024-01-15T07:59:15;131.25;;;51.85;;
41546;SDS011;27271;45.412;10.852;2024-01-15T08:02:37;121.15;;;50.78;;
41546;SDS011;27271;45.412;10.852;2024-01-15T08:06:00;132.43;;;53.42;;
41546;SDS011;27271;45.412;10.852;2024-01-15T08:09:22;138.00;;;51.63;;
41546;SDS011;27271;45.412;10.852;2024-01-15T08:12:45;127.18;;;51.83;;
41546;SDS011;27271;45.412;10.852;2024-01-15T08:16:07;132.82;;;50.53;;
41546;SDS011;27271;45.412;10.852;2024-01-15T08:19:30;130.70;;;51.47;;
41546;SDS011;27271;45.412;10.852;2024-01-15T08:22:53;133.77;;;51.20;;
41546;SDS011;27271;45.412;10.852;2024-01-15T08:26:15;120.35;;;50.40;;
41546;SDS011;27271;45.412;10.852;2024-01-15T08:29:37;109.22;;;47.65;;
41546;SDS011;27271;45.412;10.852;2024-01-15T08:32:59;117.57;;;48.22;;
41546;SDS011;27271;45.412;10.852;2024-01-15T08:36:32;125.00;;;50.38;;
41546;SDS011;27271;45.412;10.852;2024-01-15T08:39:56;119.68;;;48.08;;
41546;SDS011;27271;45.412;10.852;2024-01-15T08:43:18;121.28;;;50.08;;
41546;SDS011;27271;45.412;10.852;2024-01-15T08:46:40;108.13;;;46.33;;
41546;SDS011;27271;45.412;10.852;2024-01-15T08:50:03;113.45;;;47.22;;
41546;SDS011;27271;45.412;10.852;2024-01-15T08:53:26;106.95;;;46.13;;
41546;SDS011;27271;45.412;10.852;2024-01-15T08:56:48;107.97;;;45.33;;
41546;SDS011;27271;45.412;10.852;2024-01-15T09:00:10;93.75;;;42.55;;
41546;SDS011;27271;45.412;10.852;2024-01-15T09:03:34;97.63;;;43.72;;
41546;SDS011;27271;45.412;10.852;2024-01-15T09:06:59;98.50;;;42.40;;
41546;SDS011;27271;45.412;10.852;2024-01-15T09:10:22;95.50;;;42.40;;
41546;SDS011;27271;45.412;10.852;2024-01-15T09:13:44;90.28;;;38.97;;
41546;SDS011;27271;45.412;10.852;2024-01-15T09:17:07;95.78;;;40.75;;
41546;SDS011;27271;45.412;10.852;2024-01-15T09:20:30;93.03;;;38.53;;
41546;SDS011;27271;45.412;10.852;2024-01-15T09:23:53;89.80;;;38.92;;
41546;SDS011;27271;45.412;10.852;2024-01-15T09:27:15;93.80;;;39.13;;
41546;SDS011;27271;45.412;10.852;2024-01-15T09:30:38;96.45;;;41.00;;
41546;SDS011;27271;45.412;10.852;2024-01-15T09:34:00;95.90;;;43.17;;
41546;SDS011;27271;45.412;10.852;2024-01-15T09:37:24;94.72;;;41.78;;
41546;SDS011;27271;45.412;10.852;2024-01-15T09:41:05;80.75;;;37.03;;
41546;SDS011;27271;45.412;10.852;2024-01-15T09:44:27;75.25;;;36.08;;
41546;SDS011;27271;45.412;10.852;2024-01-15T09:47:50;74.20;;;34.75;;
41546;SDS011;27271;45.412;10.852;2024-01-15T09:51:12;85.35;;;35.00;;
41546;SDS011;27271;45.412;10.852;2024-01-15T09:54:35;72.50;;;33.75;;
41546;SDS011;27271;45.412;10.852;2024-01-15T09:57:59;99.55;;;42.22;;
41546;SDS011;27271;45.412;10.852;2024-01-15T10:01:23;120.00;;;46.03;;
41546;SDS011;27271;45.412;10.852;2024-01-15T10:04:47;146.98;;;52.22;;
41546;SDS011;27271;45.412;10.852;2024-01-15T10:08:09;93.25;;;43.80;;
41546;SDS011;27271;45.412;10.852;2024-01-15T10:11:33;84.45;;;37.72;;
41546;SDS011;27271;45.412;10.852;2024-01-15T10:14:56;85.18;;;37.35;;
41546;SDS011;27271;45.412;10.852;2024-01-15T10:18:19;89.35;;;36.28;;
41546;SDS011;27271;45.412;10.852;2024-01-15T10:21:41;77.97;;;35.10;;
41546;SDS011;27271;45.412;10.852;2024-01-15T10:25:04;77.57;;;35.08;;
41546;SDS011;27271;45.412;10.852;2024-01-15T10:28:27;70.40;;;32.60;;
41546;SDS011;27271;45.412;10.852;2024-01-15T10:31:51;73.47;;;32.50;;
41546;SDS011;27271;45.412;10.852;2024-01-15T10:35:13;72.80;;;35.28;;
41546;SDS011;27271;45.412;10.852;2024-01-15T10:38:36;81.20;;;35.65;;
41546;SDS011;27271;45.412;10.852;2024-01-15T10:41:58;82.45;;;36.42;;
41546;SDS011;27271;45.412;10.852;2024-01-15T10:45:20;73.47;;;33.25;;
41546;SDS011;27271;45.412;10.852;2024-01-15T10:48:43;71.30;;;33.22;;
41546;SDS011;27271;45.412;10.852;2024-01-15T10:52:07;75.28;;;33.75;;
41546;SDS011;27271;45.412;10.852;2024-01-15T10:55:29;71.00;;;32.60;;
41546;SDS011;27271;45.412;10.852;2024-01-15T10:58:54;71.70;;;32.88;;
41546;SDS011;27271;45.412;10.852;2024-01-15T11:02:21;65.30;;;31.08;;
41546;SDS011;27271;45.412;10.852;2024-01-15T11:05:44;73.80;;;33.05;;
41546;SDS011;27271;45.412;10.852;2024-01-15T11:09:07;67.32;;;31.67;;
41546;SDS011;27271;45.412;10.852;2024-01-15T11:12:30;69.80;;;32.83;;
41546;SDS011;27271;45.412;10.852;2024-01-15T11:16:11;72.05;;;33.65;;
41546;SDS011;27271;45.412;10.852;2024-01-15T11:23:10;76.75;;;34.38;;
41546;SDS011;27271;45.412;10.852;2024-01-15T11:26:33;67.90;;;31.27;;
41546;SDS011;27271;45.412;10.852;2024-01-15T11:30:09;70.97;;;31.17;;
41546;SDS011;27271;45.412;10.852;2024-01-15T11:33:35;65.10;;;28.83;;
41546;SDS011;27271;45.412;10.852;2024-01-15T11:37:09;83.95;;;36.38;;
41546;SDS011;27271;45.412;10.852;2024-01-15T11:43:55;55.40;;;27.80;;
41546;SDS011;27271;45.412;10.852;2024-01-15T11:51:16;57.63;;;27.75;;
41546;SDS011;27271;45.412;10.852;2024-01-15T11:54:40;55.22;;;28.48;;
41546;SDS011;27271;45.412;10.852;2024-01-15T11:58:11;52.95;;;28.67;;
41546;SDS011;27271;45.412;10.852;2024-01-15T12:01:34;56.83;;;28.52;;
41546;SDS011;27271;45.412;10.852;2024-01-15T12:04:57;64.63;;;30.77;;
41546;SDS011;27271;45.412;10.852;2024-01-15T12:08:23;63.47;;;29.50;;
41546;SDS011;27271;45.412;10.852;2024-01-15T12:11:46;62.58;;;31.35;;
41546;SDS011;27271;45.412;10.852;2024-01-15T12:15:16;67.43;;;31.00;;
41546;SDS011;27271;45.412;10.852;2024-01-15T12:18:38;66.70;;;31.55;;
41546;SDS011;27271;45.412;10.852;2024-01-15T12:22:02;67.45;;;33.17;;
41546;SDS011;27271;45.412;10.852;2024-01-15T12:25:25;66.88;;;30.48;;
41546;SDS011;27271;45.412;10.852;2024-01-15T12:28:50;71.80;;;34.15;;
41546;SDS011;27271;45.412;10.852;2024-01-15T12:32:15;62.53;;;29.20;;
41546;SDS011;27271;45.412;10.852;2024-01-15T12:35:37;61.25;;;28.60;;
41546;SDS011;27271;45.412;10.852;2024-01-15T12:38:59;67.30;;;32.08;;
41546;SDS011;27271;45.412;10.852;2024-01-15T12:42:22;55.90;;;28.73;;
41546;SDS011;27271;45.412;10.852;2024-01-15T12:45:45;52.75;;;28.38;;
41546;SDS011;27271;45.412;10.852;2024-01-15T12:49:08;50.42;;;25.48;;
41546;SDS011;27271;45.412;10.852;2024-01-15T12:52:32;57.22;;;27.25;;
41546;SDS011;27271;45.412;10.852;2024-01-15T12:55:54;60.25;;;27.48;;
41546;SDS011;27271;45.412;10.852;2024-01-15T12:59:18;56.47;;;28.77;;
41546;SDS011;27271;45.412;10.852;2024-01-15T13:02:41;66.10;;;30.55;;
41546;SDS011;27271;45.412;10.852;2024-01-15T13:06:05;72.43;;;32.60;;
41546;SDS011;27271;45.412;10.852;2024-01-15T13:09:28;58.53;;;28.23;;
41546;SDS011;27271;45.412;10.852;2024-01-15T13:12:51;67.15;;;29.88;;
41546;SDS011;27271;45.412;10.852;2024-01-15T13:16:13;91.63;;;40.45;;
41546;SDS011;27271;45.412;10.852;2024-01-15T13:19:36;76.82;;;36.42;;
41546;SDS011;27271;45.412;10.852;2024-01-15T13:22:58;78.75;;;36.22;;
41546;SDS011;27271;45.412;10.852;2024-01-15T13:26:21;74.97;;;36.22;;
41546;SDS011;27271;45.412;10.852;2024-01-15T13:29:43;70.85;;;35.65;;
41546;SDS011;27271;45.412;10.852;2024-01-15T13:33:06;84.30;;;38.88;;
41546;SDS011;27271;45.412;10.852;2024-01-15T13:36:30;84.40;;;38.15;;
41546;SDS011;27271;45.412;10.852;2024-01-15T13:39:53;81.63;;;37.25;;
41546;SDS011;27271;45.412;10.852;2024-01-15T13:43:15;79.95;;;36.97;;
41546;SDS011;27271;45.412;10.852;2024-01-15T13:46:40;80.60;;;39.90;;
41546;SDS011;27271;45.412;10.852;2024-01-15T13:50:03;88.32;;;40.20;;
41546;SDS011;27271;45.412;10.852;2024-01-15T13:53:25;87.53;;;38.95;;
41546;SDS011;27271;45.412;10.852;2024-01-15T13:56:48;86.88;;;41.25;;
41546;SDS011;27271;45.412;10.852;2024-01-15T14:00:11;83.45;;;38.95;;
41546;SDS011;27271;45.412;10.852;2024-01-15T14:03:34;93.22;;;40.72;;
41546;SDS011;27271;45.412;10.852;2024-01-15T14:06:57;93.07;;;42.65;;
41546;SDS011;27271;45.412;10.852;2024-01-15T14:10:19;89.30;;;41.38;;
41546;SDS011;27271;45.412;10.852;2024-01-15T14:13:42;88.28;;;40.08;;
41546;SDS011;27271;45.412;10.852;2024-01-15T14:17:04;91.68;;;41.53;;
41546;SDS011;27271;45.412;10.852;2024-01-15T14:20:27;93.43;;;41.80;;
41546;SDS011;27271;45.412;10.852;2024-01-15T14:23:49;92.28;;;40.67;;
41546;SDS011;27271;45.412;10.852;2024-01-15T14:27:11;87.60;;;42.67;;
41546;SDS011;27271;45.412;10.852;2024-01-15T14:30:33;88.22;;;43.28;;
41546;SDS011;27271;45.412;10.852;2024-01-15T14:33:56;90.13;;;41.70;;
41546;SDS011;27271;45.412;10.852;2024-01-15T14:37:19;104.53;;;45.30;;
41546;SDS011;27271;45.412;10.852;2024-01-15T14:40:43;95.05;;;42.17;;
41546;SDS011;27271;45.412;10.852;2024-01-15T14:44:05;95.38;;;42.20;;
41546;SDS011;27271;45.412;10.852;2024-01-15T14:47:28;96.22;;;43.25;;
41546;SDS011;27271;45.412;10.852;2024-01-15T14:50:51;99.75;;;42.83;;
41546;SDS011;27271;45.412;10.852;2024-01-15T14:54:13;93.90;;;42.67;;
41546;SDS011;27271;45.412;10.852;2024-01-15T14:57:36;92.10;;;43.55;;
41546;SDS011;27271;45.412;10.852;2024-01-15T15:00:59;93.55;;;42.50;;
41546;SDS011;27271;45.412;10.852;2024-01-15T15:04:21;94.57;;;44.17;;
41546;SDS011;27271;45.412;10.852;2024-01-15T15:07:43;97.25;;;45.50;;
41546;SDS011;27271;45.412;10.852;2024-01-15T15:11:06;99.95;;;45.17;;
41546;SDS011;27271;45.412;10.852;2024-01-15T15:14:29;93.13;;;42.33;;
41546;SDS011;27271;45.412;10.852;2024-01-15T15:17:51;92.38;;;41.80;;
41546;SDS011;27271;45.412;10.852;2024-01-15T15:21:13;98.28;;;43.40;;
41546;SDS011;27271;45.412;10.852;2024-01-15T15:24:39;98.65;;;43.00;;
41546;SDS011;27271;45.412;10.852;2024-01-15T15:28:01;100.78;;;46.33;;
41546;SDS011;27271;45.412;10.852;2024-01-15T15:31:26;100.05;;;43.70;;
41546;SDS011;27271;45.412;10.852;2024-01-15T15:34:53;95.63;;;45.38;;
41546;SDS011;27271;45.412;10.852;2024-01-15T15:38:17;105.32;;;45.50;;
41546;SDS011;27271;45.412;10.852;2024-01-15T15:41:40;97.30;;;44.35;;
41546;SDS011;27271;45.412;10.852;2024-01-15T15:45:02;97.20;;;43.88;;
41546;SDS011;27271;45.412;10.852;2024-01-15T15:48:25;110.80;;;43.75;;
41546;SDS011;27271;45.412;10.852;2024-01-15T15:51:48;98.07;;;43.67;;
41546;SDS011;27271;45.412;10.852;2024-01-15T15:55:10;112.03;;;47.30;;
41546;SDS011;27271;45.412;10.852;2024-01-15T15:58:32;105.47;;;45.58;;
41546;SDS011;27271;45.412;10.852;2024-01-15T16:01:54;104.70;;;44.30;;
41546;SDS011;27271;45.412;10.852;2024-01-15T16:05:17;104.25;;;47.30;;
41546;SDS011;27271;45.412;10.852;2024-01-15T16:08:40;119.40;;;50.88;;
41546;SDS011;27271;45.412;10.852;2024-01-15T16:12:02;107.78;;;48.83;;
41546;SDS011;27271;45.412;10.852;2024-01-15T16:15:28;118.72;;;49.35;;
41546;SDS011;27271;45.412;10.852;2024-01-15T16:18:52;113.03;;;48.30;;
41546;SDS011;27271;45.412;10.852;2024-01-15T16:22:33;115.35;;;46.97;;
41546;SDS011;27271;45.412;10.852;2024-01-15T16:26:16;109.50;;;47.92;;
41546;SDS011;27271;45.412;10.852;2024-01-15T16:29:39;119.70;;;49.05;;
41546;SDS011;27271;45.412;10.852;2024-01-15T16:33:01;113.68;;;49.38;;
41546;SDS011;27271;45.412;10.852;2024-01-15T16:36:23;115.50;;;48.67;;
41546;SDS011;27271;45.412;10.852;2024-01-15T16:39:47;124.57;;;51.35;;
41546;SDS011;27271;45.412;10.852;2024-01-15T16:43:09;120.40;;;51.33;;
41546;SDS011;27271;45.412;10.852;2024-01-15T16:46:31;126.70;;;49.72;;
41546;SDS011;27271;45.412;10.852;2024-01-15T16:49:53;131.82;;;51.65;;
41546;SDS011;27271;45.412;10.852;2024-01-15T16:53:19;119.07;;;48.17;;
41546;SDS011;27271;45.412;10.852;2024-01-15T16:56:41;121.43;;;51.92;;
41546;SDS011;27271;45.412;10.852;2024-01-15T17:00:05;117.13;;;49.85;;
41546;SDS011;27271;45.412;10.852;2024-01-15T17:03:28;126.28;;;49.75;;
41546;SDS011;27271;45.412;10.852;2024-01-15T17:06:51;122.78;;;51.33;;
41546;SDS011;27271;45.412;10.852;2024-01-15T17:10:13;118.75;;;51.65;;
41546;SDS011;27271;45.412;10.852;2024-01-15T17:13:36;132.43;;;52.17;;
41546;SDS011;27271;45.412;10.852;2024-01-15T17:17:00;140.48;;;53.70;;
41546;SDS011;27271;45.412;10.852;2024-01-15T17:20:22;139.63;;;55.97;;
41546;SDS011;27271;45.412;10.852;2024-01-15T17:23:46;133.30;;;55.42;;
41546;SDS011;27271;45.412;10.852;2024-01-15T17:27:09;142.70;;;57.35;;
41546;SDS011;27271;45.412;10.852;2024-01-15T17:30:31;136.32;;;55.60;;
41546;SDS011;27271;45.412;10.852;2024-01-15T17:33:53;128.45;;;54.55;;
41546;SDS011;27271;45.412;10.852;2024-01-15T17:37:19;142.20;;;57.50;;
41546;SDS011;27271;45.412;10.852;2024-01-15T17:40:41;143.32;;;56.10;;
41546;SDS011;27271;45.412;10.852;2024-01-15T17:44:03;145.20;;;58.38;;
41546;SDS011;27271;45.412;10.852;2024-01-15T17:47:26;132.95;;;55.35;;
41546;SDS011;27271;45.412;10.852;2024-01-15T17:50:49;144.00;;;58.80;;
41546;SDS011;27271;45.412;10.852;2024-01-15T17:54:12;136.18;;;55.90;;
41546;SDS011;27271;45.412;10.852;2024-01-15T17:57:35;139.88;;;54.80;;
41546;SDS011;27271;45.412;10.852;2024-01-15T18:00:58;144.82;;;57.53;;
41546;SDS011;27271;45.412;10.852;2024-01-15T18:04:23;144.48;;;57.97;;
41546;SDS011;27271;45.412;10.852;2024-01-15T18:07:46;146.35;;;54.55;;
41546;SDS011;27271;45.412;10.852;2024-01-15T18:11:14;139.30;;;56.65;;
41546;SDS011;27271;45.412;10.852;2024-01-15T18:14:40;131.95;;;55.17;;
41546;SDS011;27271;45.412;10.852;2024-01-15T18:18:02;147.43;;;59.55;;
41546;SDS011;27271;45.412;10.852;2024-01-15T18:21:25;151.18;;;63.35;;
41546;SDS011;27271;45.412;10.852;2024-01-15T18:24:48;170.23;;;64.15;;
41546;SDS011;27271;45.412;10.852;2024-01-15T18:28:11;144.48;;;57.30;;
41546;SDS011;27271;45.412;10.852;2024-01-15T18:31:36;138.73;;;55.25;;
41546;SDS011;27271;45.412;10.852;2024-01-15T18:34:58;150.30;;;57.50;;
41546;SDS011;27271;45.412;10.852;2024-01-15T18:38:20;145.07;;;57.80;;
41546;SDS011;27271;45.412;10.852;2024-01-15T18:41:43;146.27;;;58.28;;
41546;SDS011;27271;45.412;10.852;2024-01-15T18:45:05;145.55;;;58.05;;
41546;SDS011;27271;45.412;10.852;2024-01-15T18:48:28;156.18;;;64.45;;
41546;SDS011;27271;45.412;10.852;2024-01-15T18:51:51;184.30;;;73.53;;
41546;SDS011;27271;45.412;10.852;2024-01-15T18:55:15;161.52;;;65.32;;
41546;SDS011;27271;45.412;10.852;2024-01-15T18:58:39;164.98;;;60.75;;
41546;SDS011;27271;45.412;10.852;2024-01-15T19:02:04;154.50;;;60.40;;
41546;SDS011;27271;45.412;10.852;2024-01-15T19:05:26;144.60;;;56.88;;
41546;SDS011;27271;45.412;10.852;2024-01-15T19:08:49;144.23;;;60.15;;
41546;SDS011;27271;45.412;10.852;2024-01-15T19:12:12;146.18;;;59.33;;
41546;SDS011;27271;45.412;10.852;2024-01-15T19:15:34;128.00;;;53.13;;
41546;SDS011;27271;45.412;10.852;2024-01-15T19:18:57;131.25;;;51.03;;
41546;SDS011;27271;45.412;10.852;2024-01-15T19:22:19;145.48;;;55.92;;
41546;SDS011;27271;45.412;10.852;2024-01-15T19:25:42;131.85;;;51.38;;
41546;SDS011;27271;45.412;10.852;2024-01-15T19:29:04;131.35;;;54.42;;
41546;SDS011;27271;45.412;10.852;2024-01-15T19:32:29;130.55;;;54.70;;
41546;SDS011;27271;45.412;10.852;2024-01-15T19:35:52;118.95;;;50.30;;
41546;SDS011;27271;45.412;10.852;2024-01-15T19:39:14;125.82;;;51.00;;
41546;SDS011;27271;45.412;10.852;2024-01-15T19:42:36;130.65;;;53.17;;
41546;SDS011;27271;45.412;10.852;2024-01-15T19:45:59;132.02;;;55.65;;
41546;SDS011;27271;45.412;10.852;2024-01-15T19:49:22;131.27;;;52.25;;
41546;SDS011;27271;45.412;10.852;2024-01-15T19:52:44;135.25;;;51.85;;
41546;SDS011;27271;45.412;10.852;2024-01-15T19:56:06;145.20;;;56.25;;
41546;SDS011;27271;45.412;10.852;2024-01-15T19:59:29;137.48;;;57.75;;
41546;SDS011;27271;45.412;10.852;2024-01-15T20:02:53;133.15;;;51.25;;
41546;SDS011;27271;45.412;10.852;2024-01-15T20:06:15;129.00;;;51.53;;
41546;SDS011;27271;45.412;10.852;2024-01-15T20:09:39;124.35;;;52.40;;
41546;SDS011;27271;45.412;10.852;2024-01-15T20:13:02;137.43;;;57.83;;
41546;SDS011;27271;45.412;10.852;2024-01-15T20:16:25;155.10;;;64.35;;
41546;SDS011;27271;45.412;10.852;2024-01-15T20:19:47;160.70;;;66.07;;
41546;SDS011;27271;45.412;10.852;2024-01-15T20:23:10;142.57;;;62.10;;
41546;SDS011;27271;45.412;10.852;2024-01-15T20:26:32;157.85;;;61.95;;
41546;SDS011;27271;45.412;10.852;2024-01-15T20:29:54;141.60;;;56.10;;
41546;SDS011;27271;45.412;10.852;2024-01-15T20:33:19;153.50;;;62.63;;
41546;SDS011;27271;45.412;10.852;2024-01-15T20:36:41;161.80;;;63.60;;
41546;SDS011;27271;45.412;10.852;2024-01-15T20:40:04;143.23;;;58.78;;
41546;SDS011;27271;45.412;10.852;2024-01-15T20:43:27;154.32;;;66.45;;
41546;SDS011;27271;45.412;10.852;2024-01-15T20:46:50;158.63;;;68.70;;
41546;SDS011;27271;45.412;10.852;2024-01-15T20:50:13;153.55;;;63.30;;
41546;SDS011;27271;45.412;10.852;2024-01-15T20:53:36;148.93;;;59.45;;
41546;SDS011;27271;45.412;10.852;2024-01-15T20:56:58;151.38;;;57.17;;
41546;SDS011;27271;45.412;10.852;2024-01-15T21:00:23;142.30;;;58.30;;
41546;SDS011;27271;45.412;10.852;2024-01-15T21:03:45;132.10;;;54.92;;
41546;SDS011;27271;45.412;10.852;2024-01-15T21:07:07;132.38;;;57.33;;
41546;SDS011;27271;45.412;10.852;2024-01-15T21:10:29;140.45;;;56.38;;
41546;SDS011;27271;45.412;10.852;2024-01-15T21:13:51;135.35;;;55.25;;
41546;SDS011;27271;45.412;10.852;2024-01-15T21:17:13;138.40;;;54.45;;
41546;SDS011;27271;45.412;10.852;2024-01-15T21:20:36;136.63;;;53.75;;
41546;SDS011;27271;45.412;10.852;2024-01-15T21:23:59;144.48;;;54.90;;
41546;SDS011;27271;45.412;10.852;2024-01-15T21:27:22;136.85;;;55.00;;
41546;SDS011;27271;45.412;10.852;2024-01-15T21:30:47;146.32;;;57.83;;
41546;SDS011;27271;45.412;10.852;2024-01-15T21:34:09;125.07;;;52.30;;
41546;SDS011;27271;45.412;10.852;2024-01-15T21:37:32;154.60;;;56.95;;
41546;SDS011;27271;45.412;10.852;2024-01-15T21:40:54;137.65;;;53.55;;
41546;SDS011;27271;45.412;10.852;2024-01-15T21:44:17;146.27;;;54.22;;
41546;SDS011;27271;45.412;10.852;2024-01-15T21:47:40;132.45;;;54.30;;
41546;SDS011;27271;45.412;10.852;2024-01-15T21:51:04;138.07;;;54.50;;
41546;SDS011;27271;45.412;10.852;2024-01-15T21:54:26;121.30;;;50.08;;
41546;SDS011;27271;45.412;10.852;2024-01-15T21:57:49;134.73;;;51.50;;
41546;SDS011;27271;45.412;10.852;2024-01-15T22:01:11;137.98;;;53.10;;
41546;SDS011;27271;45.412;10.852;2024-01-15T22:04:36;139.35;;;54.25;;
41546;SDS011;27271;45.412;10.852;2024-01-15T22:07:59;128.93;;;52.03;;
41546;SDS011;27271;45.412;10.852;2024-01-15T22:11:22;144.13;;;53.63;;
41546;SDS011;27271;45.412;10.852;2024-01-15T22:14:44;131.23;;;52.92;;
41546;SDS011;27271;45.412;10.852;2024-01-15T22:18:07;130.48;;;52.33;;
41546;SDS011;27271;45.412;10.852;2024-01-15T22:21:30;124.72;;;50.85;;
41546;SDS011;27271;45.412;10.852;2024-01-15T22:24:55;135.63;;;50.58;;
41546;SDS011;27271;45.412;10.852;2024-01-15T22:28:17;123.68;;;48.15;;
41546;SDS011;27271;45.412;10.852;2024-01-15T22:31:40;114.45;;;43.63;;
41546;SDS011;27271;45.412;10.852;2024-01-15T22:35:03;99.72;;;39.97;;
41546;SDS011;27271;45.412;10.852;2024-01-15T22:38:28;95.70;;;38.63;;
41546;SDS011;27271;45.412;10.852;2024-01-15T22:41:50;90.70;;;36.38;;
41546;SDS011;27271;45.412;10.852;2024-01-15T22:45:12;93.32;;;39.65;;
41546;SDS011;27271;45.412;10.852;2024-01-15T22:48:38;89.40;;;38.28;;
41546;SDS011;27271;45.412;10.852;2024-01-15T22:52:00;95.88;;;39.13;;
41546;SDS011;27271;45.412;10.852;2024-01-15T22:55:23;91.03;;;37.58;;
41546;SDS011;27271;45.412;10.852;2024-01-15T22:58:46;96.10;;;38.05;;
41546;SDS011;27271;45.412;10.852;2024-01-15T23:02:08;92.82;;;35.90;;
41546;SDS011;27271;45.412;10.852;2024-01-15T23:05:31;94.00;;;39.30;;
41546;SDS011;27271;45.412;10.852;2024-01-15T23:08:53;100.45;;;40.95;;
41546;SDS011;27271;45.412;10.852;2024-01-15T23:12:19;99.72;;;39.40;;
41546;SDS011;27271;45.412;10.852;2024-01-15T23:15:42;107.53;;;42.95;;
41546;SDS011;27271;45.412;10.852;2024-01-15T23:19:05;99.20;;;41.63;;
41546;SDS011;27271;45.412;10.852;2024-01-15T23:22:27;106.93;;;41.60;;
41546;SDS011;27271;45.412;10.852;2024-01-15T23:25:50;112.45;;;44.22;;
41546;SDS011;27271;45.412;10.852;2024-01-15T23:29:12;99.95;;;39.35;;
